sensor_id;sensor_type;location;lat;lon;timestamp;temperature;humidity
15386;DHT22;7791;47.246;9.648;2023-07-16T00:04:28;24.20;98.50
15386;DHT22;7791;47.246;9.648;2023-07-16T00:07:25;24.20;98.80
15386;DHT22;7791;47.246;9.648;2023-07-16T00:12:59;24.20;98.90
15386;DHT22;7791;47.246;9.648;2023-07-16T00:15:35;24.20;99.10
15386;DHT22;7791;47.246;9.648;2023-07-16T00:18:10;24.20;99.10
15386;DHT22;7791;47.246;9.648;2023-07-16T00:23:47;24.30;99.90
15386;DHT22;7791;47.246;9.648;2023-07-16T00:26:35;24.20;99.90
15386;DHT22;7791;47.246;9.648;2023-07-16T00:29:10;24.10;99.90
15386;DHT22;7791;47.246;9.648;2023-07-16T00:31:57;24.00;99.90
15386;DHT22;7791;47.246;9.648;2023-07-16T00:34:33;23.90;99.90
15386;DHT22;7791;47.246;9.648;2023-07-16T00:37:05;23.80;99.90
15386;DHT22;7791;47.246;9.648;2023-07-16T00:39:50;23.60;99.90
15386;DHT22;7791;47.246;9.648;2023-07-16T00:42:28;23.50;99.90
15386;DHT22;7791;47.246;9.648;2023-07-16T00:45:01;23.50;99.90
15386;DHT22;7791;47.246;9.648;2023-07-16T00:47:41;23.40;99.90
15386;DHT22;7791;47.246;9.648;2023-07-16T00:50:10;23.30;99.90
15386;DHT22;7791;47.246;9.648;2023-07-16T00:52:53;23.20;99.90
15386;DHT22;7791;47.246;9.648;2023-07-16T00:55:28;23.20;99.90
15386;DHT22;7791;47.246;9.648;2023-07-16T00:58:08;23.30;99.90
15386;DHT22;7791;47.246;9.648;2023-07-16T01:00:54;23.30;99.90
15386;DHT22;7791;47.246;9.648;2023-07-16T01:03:30;23.20;99.90
15386;DHT22;7791;47.246;9.648;2023-07-16T01:06:21;23.20;99.90
15386;DHT22;7791;47.246;9.648;2023-07-16T01:08:58;23.20;99.90
15386;DHT22;7791;47.246;9.648;2023-07-16T01:15:07;23.10;99.90
15386;DHT22;7791;47.246;9.648;2023-07-16T01:17:47;22.90;99.90
15386;DHT22;7791;47.246;9.648;2023-07-16T01:20:16;22.70;99.90
15386;DHT22;7791;47.246;9.648;2023-07-16T01:29:41;22.30;99.90
15386;DHT22;7791;47.246;9.648;2023-07-16T01:32:12;22.00;99.90
15386;DHT22;7791;47.246;9.648;2023-07-16T01:34:46;21.80;99.90
15386;DHT22;7791;47.246;9.648;2023-07-16T01:37:14;21.70;99.90
15386;DHT22;7791;47.246;9.648;2023-07-16T01:39:55;21.70;99.90
15386;DHT22;7791;47.246;9.648;2023-07-16T01:42:58;21.60;99.90
15386;DHT22;7791;47.246;9.648;2023-07-16T01:45:37;21.40;99.90
15386;DHT22;7791;47.246;9.648;2023-07-16T01:48:21;21.30;99.90
15386;DHT22;7791;47.246;9.648;2023-07-16T01:51:04;21.30;99.90
15386;DHT22;7791;47.246;9.648;2023-07-16T01:56:25;21.10;99.90
15386;DHT22;7791;47.246;9.648;2023-07-16T01:59:08;21.10;99.90
15386;DHT22;7791;47.246;9.648;2023-07-16T02:01:47;21.00;99.90
15386;DHT22;7791;47.246;9.648;2023-07-16T02:07:04;20.90;99.90
15386;DHT22;7791;47.246;9.648;2023-07-16T02:09:54;21.00;99.90
15386;DHT22;7791;47.246;9.648;2023-07-16T02:12:46;21.00;99.90
15386;DHT22;7791;47.246;9.648;2023-07-16T02:15:21;21.00;99.90
15386;DHT22;7791;47.246;9.648;2023-07-16T02:18:10;21.00;99.90
15386;DHT22;7791;47.246;9.648;2023-07-16T02:21:00;21.00;99.90
15386;DHT22;7791;47.246;9.648;2023-07-16T02:23:36;21.00;99.90
15386;DHT22;7791;47.246;9.648;2023-07-16T02:26:11;21.10;99.90
15386;DHT22;7791;47.246;9.648;2023-07-16T02:31:33;21.20;99.90
15386;DHT22;7791;47.246;9.648;2023-07-16T02:34:09;21.20;99.90
15386;DHT22;7791;47.246;9.648;2023-07-16T02:36:40;21.20;99.90
15386;DHT22;7791;47.246;9.648;2023-07-16T02:39:14;21.20;99.90
15386;DHT22;7791;47.246;9.648;2023-07-16T02:42:03;21.20;99.90
15386;DHT22;7791;47.246;9.648;2023-07-16T02:44:40;21.30;99.90
15386;DHT22;7791;47.246;9.648;2023-07-16T02:47:33;21.30;99.60
15386;DHT22;7791;47.246;9.648;2023-07-16T02:50:08;21.20;99.60
15386;DHT22;7791;47.246;9.648;2023-07-16T02:52:49;21.30;99.50
15386;DHT22;7791;47.246;9.648;2023-07-16T02:55:33;21.20;99.30
15386;DHT22;7791;47.246;9.648;2023-07-16T02:58:15;21.20;99.30
15386;DHT22;7791;47.246;9.648;2023-07-16T03:01:15;21.20;99.40
15386;DHT22;7791;47.246;9.648;2023-07-16T03:03:58;21.10;99.70
15386;DHT22;7791;47.246;9.648;2023-07-16T03:06:37;21.10;99.40
15386;DHT22;7791;47.246;9.648;2023-07-16T03:09:13;21.20;99.50
15386;DHT22;7791;47.246;9.648;2023-07-16T03:11:48;21.20;99.40
15386;DHT22;7791;47.246;9.648;2023-07-16T03:14:20;21.20;99.30
15386;DHT22;7791;47.246;9.648;2023-07-16T03:16:59;21.20;99.30
15386;DHT22;7791;47.246;9.648;2023-07-16T03:19:56;21.20;99.90
15386;DHT22;7791;47.246;9.648;2023-07-16T03:22:34;21.20;99.40
15386;DHT22;7791;47.246;9.648;2023-07-16T03:25:14;21.20;99.60
15386;DHT22;7791;47.246;9.648;2023-07-16T03:27:53;21.20;99.40
15386;DHT22;7791;47.246;9.648;2023-07-16T03:30:29;21.20;99.60
15386;DHT22;7791;47.246;9.648;2023-07-16T03:33:33;21.10;99.80
15386;DHT22;7791;47.246;9.648;2023-07-16T03:36:10;21.20;99.90
15386;DHT22;7791;47.246;9.648;2023-07-16T03:38:41;21.20;99.90
15386;DHT22;7791;47.246;9.648;2023-07-16T03:41:19;21.30;99.90
15386;DHT22;7791;47.246;9.648;2023-07-16T03:43:53;21.40;99.90
15386;DHT22;7791;47.246;9.648;2023-07-16T03:46:33;21.40;99.90
15386;DHT22;7791;47.246;9.648;2023-07-16T03:49:13;21.40;99.90
15386;DHT22;7791;47.246;9.648;2023-07-16T03:51:52;21.40;99.90
15386;DHT22;7791;47.246;9.648;2023-07-16T03:54:28;21.40;99.90
15386;DHT22;7791;47.246;9.648;2023-07-16T03:57:07;21.40;99.90
15386;DHT22;7791;47.246;9.648;2023-07-16T03:59:40;21.40;99.90
15386;DHT22;7791;47.246;9.648;2023-07-16T04:02:24;21.40;99.50
15386;DHT22;7791;47.246;9.648;2023-07-16T04:05:15;21.40;99.70
15386;DHT22;7791;47.246;9.648;2023-07-16T04:07:45;21.40;99.50
15386;DHT22;7791;47.246;9.648;2023-07-16T04:10:15;21.40;99.90
15386;DHT22;7791;47.246;9.648;2023-07-16T04:12:49;21.20;99.90
15386;DHT22;7791;47.246;9.648;2023-07-16T04:15:33;21.20;99.90
15386;DHT22;7791;47.246;9.648;2023-07-16T04:19:11;20.90;99.90
15386;DHT22;7791;47.246;9.648;2023-07-16T04:23:52;20.80;99.90
15386;DHT22;7791;47.246;9.648;2023-07-16T04:26:30;20.80;99.90
15386;DHT22;7791;47.246;9.648;2023-07-16T04:29:24;20.90;99.90
15386;DHT22;7791;47.246;9.648;2023-07-16T04:32:02;21.00;99.90
15386;DHT22;7791;47.246;9.648;2023-07-16T04:34:37;20.90;99.90
15386;DHT22;7791;47.246;9.648;2023-07-16T04:37:13;21.10;99.90
15386;DHT22;7791;47.246;9.648;2023-07-16T04:42:44;21.20;99.90
15386;DHT22;7791;47.246;9.648;2023-07-16T04:45:14;21.20;99.90
15386;DHT22;7791;47.246;9.648;2023-07-16T04:47:52;21.30;99.90
15386;DHT22;7791;47.246;9.648;2023-07-16T04:50:25;21.40;99.90
15386;DHT22;7791;47.246;9.648;2023-07-16T04:53:03;21.50;99.90
15386;DHT22;7791;47.246;9.648;2023-07-16T04:55:45;21.60;99.90
15386;DHT22;7791;47.246;9.648;2023-07-16T04:58:21;21.60;99.90
15386;DHT22;7791;47.246;9.648;2023-07-16T05:01:06;21.70;99.90
15386;DHT22;7791;47.246;9.648;2023-07-16T05:03:54;21.80;99.90
15386;DHT22;7791;47.246;9.648;2023-07-16T05:09:19;21.90;99.90
15386;DHT22;7791;47.246;9.648;2023-07-16T05:12:01;21.90;99.90
15386;DHT22;7791;47.246;9.648;2023-07-16T05:14:55;22.00;99.90
15386;DHT22;7791;47.246;9.648;2023-07-16T05:17:40;22.10;99.90
15386;DHT22;7791;47.246;9.648;2023-07-16T05:20:13;22.10;99.90
15386;DHT22;7791;47.246;9.648;2023-07-16T05:23:09;22.10;99.90
15386;DHT22;7791;47.246;9.648;2023-07-16T05:25:50;22.10;99.90
15386;DHT22;7791;47.246;9.648;2023-07-16T05:28:36;22.10;99.90
15386;DHT22;7791;47.246;9.648;2023-07-16T05:31:17;22.20;99.90
15386;DHT22;7791;47.246;9.648;2023-07-16T05:34:00;22.10;99.90
15386;DHT22;7791;47.246;9.648;2023-07-16T05:36:32;21.80;99.90
15386;DHT22;7791;47.246;9.648;2023-07-16T05:39:17;21.40;99.90
15386;DHT22;7791;47.246;9.648;2023-07-16T05:41:50;21.10;99.90
15386;DHT22;7791;47.246;9.648;2023-07-16T05:44:52;21.00;99.90
15386;DHT22;7791;47.246;9.648;2023-07-16T05:47:35;21.00;99.90
15386;DHT22;7791;47.246;9.648;2023-07-16T05:50:10;21.00;99.90
15386;DHT22;7791;47.246;9.648;2023-07-16T05:52:38;20.80;99.90
15386;DHT22;7791;47.246;9.648;2023-07-16T05:55:14;20.80;99.90
15386;DHT22;7791;47.246;9.648;2023-07-16T05:57:49;20.90;99.90
15386;DHT22;7791;47.246;9.648;2023-07-16T06:00:26;21.00;99.90
15386;DHT22;7791;47.246;9.648;2023-07-16T06:03:10;21.00;99.90
15386;DHT22;7791;47.246;9.648;2023-07-16T06:06:01;21.10;99.90
15386;DHT22;7791;47.246;9.648;2023-07-16T06:08:33;21.30;99.90
15386;DHT22;7791;47.246;9.648;2023-07-16T06:11:12;21.50;99.90
15386;DHT22;7791;47.246;9.648;2023-07-16T06:16:49;21.80;99.90
15386;DHT22;7791;47.246;9.648;2023-07-16T06:27:56;22.10;99.90
15386;DHT22;7791;47.246;9.648;2023-07-16T06:30:41;22.10;99.90
15386;DHT22;7791;47.246;9.648;2023-07-16T06:36:05;22.60;99.90
15386;DHT22;7791;47.246;9.648;2023-07-16T06:38:48;23.20;99.90
15386;DHT22;7791;47.246;9.648;2023-07-16T06:41:20;23.30;98.90
15386;DHT22;7791;47.246;9.648;2023-07-16T06:43:59;23.30;99.20
15386;DHT22;7791;47.246;9.648;2023-07-16T06:46:34;23.40;98.90
15386;DHT22;7791;47.246;9.648;2023-07-16T06:49:23;23.10;99.10
15386;DHT22;7791;47.246;9.648;2023-07-16T06:51:55;23.30;99.70
15386;DHT22;7791;47.246;9.648;2023-07-16T06:57:41;24.40;98.40
15386;DHT22;7791;47.246;9.648;2023-07-16T07:00:17;25.10;97.80
15386;DHT22;7791;47.246;9.648;2023-07-16T07:03:05;25.80;96.70
15386;DHT22;7791;47.246;9.648;2023-07-16T07:05:40;26.80;95.40
15386;DHT22;7791;47.246;9.648;2023-07-16T07:08:37;26.70;94.10
15386;DHT22;7791;47.246;9.648;2023-07-16T07:11:31;26.90;93.70
15386;DHT22;7791;47.246;9.648;2023-07-16T07:14:11;26.30;95.20
15386;DHT22;7791;47.246;9.648;2023-07-16T07:16:44;26.60;94.40
15386;DHT22;7791;47.246;9.648;2023-07-16T07:24:46;29.10;92.10
15386;DHT22;7791;47.246;9.648;2023-07-16T07:27:28;29.10;90.90
15386;DHT22;7791;47.246;9.648;2023-07-16T07:33:07;28.60;90.60
15386;DHT22;7791;47.246;9.648;2023-07-16T07:35:49;29.50;89.40
15386;DHT22;7791;47.246;9.648;2023-07-16T07:38:24;28.70;91.90
15386;DHT22;7791;47.246;9.648;2023-07-16T07:41:00;27.60;92.50
15386;DHT22;7791;47.246;9.648;2023-07-16T07:43:38;27.10;93.90
15386;DHT22;7791;47.246;9.648;2023-07-16T07:49:10;25.70;96.00
15386;DHT22;7791;47.246;9.648;2023-07-16T07:51:49;25.00;97.20
15386;DHT22;7791;47.246;9.648;2023-07-16T07:54:28;24.80;97.70
15386;DHT22;7791;47.246;9.648;2023-07-16T07:57:00;24.50;97.60
15386;DHT22;7791;47.246;9.648;2023-07-16T07:59:41;24.60;97.90
15386;DHT22;7791;47.246;9.648;2023-07-16T08:02:22;24.60;97.80
15386;DHT22;7791;47.246;9.648;2023-07-16T08:05:11;24.50;98.20
15386;DHT22;7791;47.246;9.648;2023-07-16T08:07:46;24.70;97.50
15386;DHT22;7791;47.246;9.648;2023-07-16T08:10:15;24.90;97.50
15386;DHT22;7791;47.246;9.648;2023-07-16T08:13:26;25.50;95.40
15386;DHT22;7791;47.246;9.648;2023-07-16T08:15:59;26.30;94.90
15386;DHT22;7791;47.246;9.648;2023-07-16T08:18:50;27.30;93.30
15386;DHT22;7791;47.246;9.648;2023-07-16T08:21:35;27.30;92.70
15386;DHT22;7791;47.246;9.648;2023-07-16T08:24:19;28.40;91.10
15386;DHT22;7791;47.246;9.648;2023-07-16T08:26:56;29.80;88.00
15386;DHT22;7791;47.246;9.648;2023-07-16T08:29:27;30.80;85.70
15386;DHT22;7791;47.246;9.648;2023-07-16T08:32:00;31.60;81.20
15386;DHT22;7791;47.246;9.648;2023-07-16T08:34:30;30.40;82.40
15386;DHT22;7791;47.246;9.648;2023-07-16T08:37:10;30.30;84.60
15386;DHT22;7791;47.246;9.648;2023-07-16T08:39:54;30.00;85.70
15386;DHT22;7791;47.246;9.648;2023-07-16T08:42:44;30.50;83.50
15386;DHT22;7791;47.246;9.648;2023-07-16T08:45:15;31.10;85.10
15386;DHT22;7791;47.246;9.648;2023-07-16T08:48:01;30.50;85.00
15386;DHT22;7791;47.246;9.648;2023-07-16T08:50:31;29.80;89.30
15386;DHT22;7791;47.246;9.648;2023-07-16T08:53:14;29.00;90.40
15386;DHT22;7791;47.246;9.648;2023-07-16T08:56:00;28.90;91.20
15386;DHT22;7791;47.246;9.648;2023-07-16T08:58:30;28.50;90.80
15386;DHT22;7791;47.246;9.648;2023-07-16T09:01:13;28.30;88.10
15386;DHT22;7791;47.246;9.648;2023-07-16T09:04:02;28.80;91.20
15386;DHT22;7791;47.246;9.648;2023-07-16T09:06:39;28.50;91.40
15386;DHT22;7791;47.246;9.648;2023-07-16T09:09:24;28.30;92.10
15386;DHT22;7791;47.246;9.648;2023-07-16T09:12:24;28.30;90.80
15386;DHT22;7791;47.246;9.648;2023-07-16T09:14:54;28.80;90.80
15386;DHT22;7791;47.246;9.648;2023-07-16T09:17:27;28.50;91.60
15386;DHT22;7791;47.246;9.648;2023-07-16T09:19:55;28.10;92.10
15386;DHT22;7791;47.246;9.648;2023-07-16T09:22:27;28.50;91.20
15386;DHT22;7791;47.246;9.648;2023-07-16T09:25:27;29.10;90.30
15386;DHT22;7791;47.246;9.648;2023-07-16T09:30:55;28.80;90.50
15386;DHT22;7791;47.246;9.648;2023-07-16T09:33:31;29.10;87.40
15386;DHT22;7791;47.246;9.648;2023-07-16T09:37:04;29.50;86.60
15386;DHT22;7791;47.246;9.648;2023-07-16T09:39:34;28.80;88.40
15386;DHT22;7791;47.246;9.648;2023-07-16T09:42:20;28.20;90.10
15386;DHT22;7791;47.246;9.648;2023-07-16T09:45:03;28.10;90.10
15386;DHT22;7791;47.246;9.648;2023-07-16T09:47:51;29.20;86.90
15386;DHT22;7791;47.246;9.648;2023-07-16T09:50:32;29.50;88.80
15386;DHT22;7791;47.246;9.648;2023-07-16T09:53:20;30.10;83.60
15386;DHT22;7791;47.246;9.648;2023-07-16T09:55:59;31.30;81.00
15386;DHT22;7791;47.246;9.648;2023-07-16T09:58:40;31.90;79.60
15386;DHT22;7791;47.246;9.648;2023-07-16T10:01:26;31.00;79.70
15386;DHT22;7791;47.246;9.648;2023-07-16T10:03:59;30.10;82.90
15386;DHT22;7791;47.246;9.648;2023-07-16T10:06:53;29.20;84.40
15386;DHT22;7791;47.246;9.648;2023-07-16T10:09:42;28.90;87.40
15386;DHT22;7791;47.246;9.648;2023-07-16T10:12:36;29.00;87.60
15386;DHT22;7791;47.246;9.648;2023-07-16T10:15:12;28.40;87.90
15386;DHT22;7791;47.246;9.648;2023-07-16T10:17:55;29.00;88.70
15386;DHT22;7791;47.246;9.648;2023-07-16T10:20:42;29.20;87.50
15386;DHT22;7791;47.246;9.648;2023-07-16T10:23:21;29.30;86.00
15386;DHT22;7791;47.246;9.648;2023-07-16T10:26:26;28.50;89.20
15386;DHT22;7791;47.246;9.648;2023-07-16T10:28:58;28.30;88.70
15386;DHT22;7791;47.246;9.648;2023-07-16T10:31:36;28.50;88.90
15386;DHT22;7791;47.246;9.648;2023-07-16T10:34:11;28.90;86.80
15386;DHT22;7791;47.246;9.648;2023-07-16T10:36:40;29.80;86.10
15386;DHT22;7791;47.246;9.648;2023-07-16T10:39:14;30.30;86.00
15386;DHT22;7791;47.246;9.648;2023-07-16T10:41:49;30.60;83.60
15386;DHT22;7791;47.246;9.648;2023-07-16T10:44:31;29.70;84.40
15386;DHT22;7791;47.246;9.648;2023-07-16T10:47:29;29.80;87.60
15386;DHT22;7791;47.246;9.648;2023-07-16T10:50:09;29.00;88.50
15386;DHT22;7791;47.246;9.648;2023-07-16T10:52:43;28.60;90.50
15386;DHT22;7791;47.246;9.648;2023-07-16T10:55:11;28.10;90.60
15386;DHT22;7791;47.246;9.648;2023-07-16T10:57:53;27.90;91.40
15386;DHT22;7791;47.246;9.648;2023-07-16T11:00:27;27.90;91.90
15386;DHT22;7791;47.246;9.648;2023-07-16T11:03:00;28.30;90.80
15386;DHT22;7791;47.246;9.648;2023-07-16T11:05:52;28.30;91.90
15386;DHT22;7791;47.246;9.648;2023-07-16T11:08:35;28.70;90.80
15386;DHT22;7791;47.246;9.648;2023-07-16T11:11:26;28.80;91.30
15386;DHT22;7791;47.246;9.648;2023-07-16T11:14:11;28.20;91.20
15386;DHT22;7791;47.246;9.648;2023-07-16T11:16:41;27.80;91.80
15386;DHT22;7791;47.246;9.648;2023-07-16T11:22:07;27.80;93.40
15386;DHT22;7791;47.246;9.648;2023-07-16T11:24:50;27.60;92.20
15386;DHT22;7791;47.246;9.648;2023-07-16T11:27:20;27.70;91.60
15386;DHT22;7791;47.246;9.648;2023-07-16T11:30:06;27.70;92.70
15386;DHT22;7791;47.246;9.648;2023-07-16T11:32:52;28.20;92.40
15386;DHT22;7791;47.246;9.648;2023-07-16T11:35:27;28.30;92.30
15386;DHT22;7791;47.246;9.648;2023-07-16T11:40:59;27.70;92.20
15386;DHT22;7791;47.246;9.648;2023-07-16T11:43:41;28.00;92.50
15386;DHT22;7791;47.246;9.648;2023-07-16T11:46:34;27.80;92.70
15386;DHT22;7791;47.246;9.648;2023-07-16T11:49:14;28.20;92.70
15386;DHT22;7791;47.246;9.648;2023-07-16T11:51:47;28.10;92.60
15386;DHT22;7791;47.246;9.648;2023-07-16T11:54:22;28.30;92.40
15386;DHT22;7791;47.246;9.648;2023-07-16T11:57:07;28.10;92.40
15386;DHT22;7791;47.246;9.648;2023-07-16T11:59:48;27.70;92.90
15386;DHT22;7791;47.246;9.648;2023-07-16T12:02:25;27.50;92.70
15386;DHT22;7791;47.246;9.648;2023-07-16T12:05:12;27.40;93.30
15386;DHT22;7791;47.246;9.648;2023-07-16T12:07:52;27.20;93.20
15386;DHT22;7791;47.246;9.648;2023-07-16T12:10:30;27.20;94.10
15386;DHT22;7791;47.246;9.648;2023-07-16T12:13:07;27.90;93.70
15386;DHT22;7791;47.246;9.648;2023-07-16T12:18:48;28.20;93.90
15386;DHT22;7791;47.246;9.648;2023-07-16T12:21:31;28.40;91.80
15386;DHT22;7791;47.246;9.648;2023-07-16T12:24:17;28.20;92.90
15386;DHT22;7791;47.246;9.648;2023-07-16T12:26:52;28.30;92.50
15386;DHT22;7791;47.246;9.648;2023-07-16T12:32:29;28.20;93.10
15386;DHT22;7791;47.246;9.648;2023-07-16T12:35:09;28.40;92.30
15386;DHT22;7791;47.246;9.648;2023-07-16T12:37:51;28.50;92.80
15386;DHT22;7791;47.246;9.648;2023-07-16T12:43:34;29.20;92.30
15386;DHT22;7791;47.246;9.648;2023-07-16T12:46:26;29.50;90.30
15386;DHT22;7791;47.246;9.648;2023-07-16T12:51:51;29.60;90.50
15386;DHT22;7791;47.246;9.648;2023-07-16T12:54:23;29.90;88.70
15386;DHT22;7791;47.246;9.648;2023-07-16T12:57:02;29.60;88.70
15386;DHT22;7791;47.246;9.648;2023-07-16T13:02:34;28.90;90.40
15386;DHT22;7791;47.246;9.648;2023-07-16T13:05:11;28.40;91.70
15386;DHT22;7791;47.246;9.648;2023-07-16T13:07:43;28.30;91.70
15386;DHT22;7791;47.246;9.648;2023-07-16T13:10:11;28.10;90.60
15386;DHT22;7791;47.246;9.648;2023-07-16T13:15:45;28.70;89.10
15386;DHT22;7791;47.246;9.648;2023-07-16T13:18:40;28.60;87.60
15386;DHT22;7791;47.246;9.648;2023-07-16T13:21:18;28.40;89.50
15386;DHT22;7791;47.246;9.648;2023-07-16T13:24:17;28.80;87.80
15386;DHT22;7791;47.246;9.648;2023-07-16T13:26:56;29.40;88.90
15386;DHT22;7791;47.246;9.648;2023-07-16T13:29:36;30.40;86.00
15386;DHT22;7791;47.246;9.648;2023-07-16T13:32:24;29.80;87.20
15386;DHT22;7791;47.246;9.648;2023-07-16T13:35:16;29.10;89.80
15386;DHT22;7791;47.246;9.648;2023-07-16T13:38:06;28.80;89.90
15386;DHT22;7791;47.246;9.648;2023-07-16T13:44:29;29.40;89.50
15386;DHT22;7791;47.246;9.648;2023-07-16T13:46:23;29.50;89.20
15386;DHT22;7791;47.246;9.648;2023-07-16T13:49:10;30.00;88.80
15386;DHT22;7791;47.246;9.648;2023-07-16T13:51:52;29.20;89.60
15386;DHT22;7791;47.246;9.648;2023-07-16T13:57:13;29.30;91.00
15386;DHT22;7791;47.246;9.648;2023-07-16T13:59:49;29.50;89.80
15386;DHT22;7791;47.246;9.648;2023-07-16T14:02:21;30.20;88.60
15386;DHT22;7791;47.246;9.648;2023-07-16T14:07:41;29.80;86.60
15386;DHT22;7791;47.246;9.648;2023-07-16T14:10:12;29.90;85.40
15386;DHT22;7791;47.246;9.648;2023-07-16T14:13:09;29.40;85.80
15386;DHT22;7791;47.246;9.648;2023-07-16T14:15:50;29.00;84.80
15386;DHT22;7791;47.246;9.648;2023-07-16T14:18:26;28.80;84.90
15386;DHT22;7791;47.246;9.648;2023-07-16T14:21:00;28.90;85.30
15386;DHT22;7791;47.246;9.648;2023-07-16T14:26:26;28.60;87.20
15386;DHT22;7791;47.246;9.648;2023-07-16T14:29:01;28.40;86.70
15386;DHT22;7791;47.246;9.648;2023-07-16T14:31:43;27.90;88.20
15386;DHT22;7791;47.246;9.648;2023-07-16T14:34:16;27.60;91.10
15386;DHT22;7791;47.246;9.648;2023-07-16T14:37:00;27.60;91.60
15386;DHT22;7791;47.246;9.648;2023-07-16T14:39:34;27.40;91.10
15386;DHT22;7791;47.246;9.648;2023-07-16T14:42:06;27.60;91.90
15386;DHT22;7791;47.246;9.648;2023-07-16T14:44:41;27.40;91.20
15386;DHT22;7791;47.246;9.648;2023-07-16T14:47:14;27.50;91.70
15386;DHT22;7791;47.246;9.648;2023-07-16T14:49:49;27.80;90.90
15386;DHT22;7791;47.246;9.648;2023-07-16T14:52:32;28.00;91.20
15386;DHT22;7791;47.246;9.648;2023-07-16T14:55:02;28.20;90.50
15386;DHT22;7791;47.246;9.648;2023-07-16T14:57:47;28.10;90.80
15386;DHT22;7791;47.246;9.648;2023-07-16T15:00:23;28.00;90.60
15386;DHT22;7791;47.246;9.648;2023-07-16T15:02:58;28.20;90.20
15386;DHT22;7791;47.246;9.648;2023-07-16T15:05:41;28.10;90.20
15386;DHT22;7791;47.246;9.648;2023-07-16T15:08:20;28.10;91.80
15386;DHT22;7791;47.246;9.648;2023-07-16T15:10:58;28.20;91.00
15386;DHT22;7791;47.246;9.648;2023-07-16T15:13:43;28.20;90.70
15386;DHT22;7791;47.246;9.648;2023-07-16T15:16:24;28.00;90.50
15386;DHT22;7791;47.246;9.648;2023-07-16T15:18:53;27.70;91.60
15386;DHT22;7791;47.246;9.648;2023-07-16T15:24:36;28.40;90.40
15386;DHT22;7791;47.246;9.648;2023-07-16T15:27:15;28.60;90.00
15386;DHT22;7791;47.246;9.648;2023-07-16T15:29:57;28.80;90.30
15386;DHT22;7791;47.246;9.648;2023-07-16T15:32:45;28.60;89.40
15386;DHT22;7791;47.246;9.648;2023-07-16T15:35:23;27.90;91.00
15386;DHT22;7791;47.246;9.648;2023-07-16T15:37:55;28.00;91.10
15386;DHT22;7791;47.246;9.648;2023-07-16T15:40:35;27.80;91.00
15386;DHT22;7791;47.246;9.648;2023-07-16T15:43:06;27.90;91.20
15386;DHT22;7791;47.246;9.648;2023-07-16T15:45:43;28.00;90.50
15386;DHT22;7791;47.246;9.648;2023-07-16T15:48:31;28.20;90.20
15386;DHT22;7791;47.246;9.648;2023-07-16T15:51:08;27.80;90.80
15386;DHT22;7791;47.246;9.648;2023-07-16T15:53:37;27.10;91.90
15386;DHT22;7791;47.246;9.648;2023-07-16T15:56:14;27.00;92.60
15386;DHT22;7791;47.246;9.648;2023-07-16T15:58:57;27.30;91.90
15386;DHT22;7791;47.246;9.648;2023-07-16T16:01:37;27.60;91.50
15386;DHT22;7791;47.246;9.648;2023-07-16T16:04:38;27.40;90.90
15386;DHT22;7791;47.246;9.648;2023-07-16T16:07:16;27.20;91.20
15386;DHT22;7791;47.246;9.648;2023-07-16T16:10:07;26.80;91.80
15386;DHT22;7791;47.246;9.648;2023-07-16T16:13:00;26.70;91.80
15386;DHT22;7791;47.246;9.648;2023-07-16T16:15:45;26.90;92.30
15386;DHT22;7791;47.246;9.648;2023-07-16T16:18:21;27.20;91.60
15386;DHT22;7791;47.246;9.648;2023-07-16T16:20:57;27.10;91.20
15386;DHT22;7791;47.246;9.648;2023-07-16T16:29:13;26.90;91.00
15386;DHT22;7791;47.246;9.648;2023-07-16T16:34:55;26.20;91.20
15386;DHT22;7791;47.246;9.648;2023-07-16T16:37:37;26.00;91.80
15386;DHT22;7791;47.246;9.648;2023-07-16T16:46:07;26.20;91.90
15386;DHT22;7791;47.246;9.648;2023-07-16T16:48:40;26.40;91.90
15386;DHT22;7791;47.246;9.648;2023-07-16T16:51:26;26.70;91.80
15386;DHT22;7791;47.246;9.648;2023-07-16T16:54:08;26.90;91.40
15386;DHT22;7791;47.246;9.648;2023-07-16T16:56:43;26.70;91.20
15386;DHT22;7791;47.246;9.648;2023-07-16T17:02:14;26.00;92.00
15386;DHT22;7791;47.246;9.648;2023-07-16T17:04:46;25.80;92.70
15386;DHT22;7791;47.246;9.648;2023-07-16T17:07:18;25.80;92.40
15386;DHT22;7791;47.246;9.648;2023-07-16T17:09:53;25.30;93.50
15386;DHT22;7791;47.246;9.648;2023-07-16T17:12:31;25.00;93.40
15386;DHT22;7791;47.246;9.648;2023-07-16T17:15:06;24.80;93.80
15386;DHT22;7791;47.246;9.648;2023-07-16T17:17:50;24.90;94.00
15386;DHT22;7791;47.246;9.648;2023-07-16T17:20:32;24.90;94.00
15386;DHT22;7791;47.246;9.648;2023-07-16T17:23:26;25.00;94.30
15386;DHT22;7791;47.246;9.648;2023-07-16T17:26:02;25.10;93.30
15386;DHT22;7791;47.246;9.648;2023-07-16T17:28:39;25.00;93.50
15386;DHT22;7791;47.246;9.648;2023-07-16T17:31:16;25.10;93.60
15386;DHT22;7791;47.246;9.648;2023-07-16T17:33:58;24.90;93.20
15386;DHT22;7791;47.246;9.648;2023-07-16T17:36:30;25.10;93.90
15386;DHT22;7791;47.246;9.648;2023-07-16T17:39:12;24.90;92.90
15386;DHT22;7791;47.246;9.648;2023-07-16T17:42:19;24.90;93.60
15386;DHT22;7791;47.246;9.648;2023-07-16T17:44:39;25.00;93.10
15386;DHT22;7791;47.246;9.648;2023-07-16T17:47:23;24.90;93.40
15386;DHT22;7791;47.246;9.648;2023-07-16T17:50:13;24.90;93.30
15386;DHT22;7791;47.246;9.648;2023-07-16T17:53:15;24.80;93.30
15386;DHT22;7791;47.246;9.648;2023-07-16T17:56:12;24.80;93.60
15386;DHT22;7791;47.246;9.648;2023-07-16T17:58:58;24.70;93.40
15386;DHT22;7791;47.246;9.648;2023-07-16T18:01:26;24.60;93.40
15386;DHT22;7791;47.246;9.648;2023-07-16T18:06:57;24.40;93.20
15386;DHT22;7791;47.246;9.648;2023-07-16T18:09:35;24.40;93.50
15386;DHT22;7791;47.246;9.648;2023-07-16T18:12:07;24.30;93.20
15386;DHT22;7791;47.246;9.648;2023-07-16T18:14:49;24.20;93.20
15386;DHT22;7791;47.246;9.648;2023-07-16T18:17:32;24.30;93.50
15386;DHT22;7791;47.246;9.648;2023-07-16T18:20:06;24.20;93.60
15386;DHT22;7791;47.246;9.648;2023-07-16T18:22:38;24.30;93.60
15386;DHT22;7791;47.246;9.648;2023-07-16T18:25:14;24.30;93.90
15386;DHT22;7791;47.246;9.648;2023-07-16T18:27:51;24.20;93.80
15386;DHT22;7791;47.246;9.648;2023-07-16T18:30:21;24.00;93.90
15386;DHT22;7791;47.246;9.648;2023-07-16T18:33:15;23.90;94.20
15386;DHT22;7791;47.246;9.648;2023-07-16T18:35:57;23.90;94.10
15386;DHT22;7791;47.246;9.648;2023-07-16T18:41:52;23.70;95.50
15386;DHT22;7791;47.246;9.648;2023-07-16T18:44:39;23.60;95.70
15386;DHT22;7791;47.246;9.648;2023-07-16T18:52:53;23.20;96.80
15386;DHT22;7791;47.246;9.648;2023-07-16T18:55:29;23.10;97.10
15386;DHT22;7791;47.246;9.648;2023-07-16T19:00:51;22.90;97.70
15386;DHT22;7791;47.246;9.648;2023-07-16T19:03:32;22.80;97.50
15386;DHT22;7791;47.246;9.648;2023-07-16T19:06:09;22.70;97.90
15386;DHT22;7791;47.246;9.648;2023-07-16T19:08:46;22.60;98.50
15386;DHT22;7791;47.246;9.648;2023-07-16T19:11:24;22.50;99.90
15386;DHT22;7791;47.246;9.648;2023-07-16T19:13:57;22.00;99.90
15386;DHT22;7791;47.246;9.648;2023-07-16T19:16:26;21.70;99.90
15386;DHT22;7791;47.246;9.648;2023-07-16T19:18:57;21.60;99.90
15386;DHT22;7791;47.246;9.648;2023-07-16T19:21:29;21.60;99.90
15386;DHT22;7791;47.246;9.648;2023-07-16T19:24:13;21.60;99.90